createdAt,value
2018-02-23T00:00:57.233Z,28.80
2018-02-23T00:02:00.536Z,28.50
2018-02-23T00:03:03.760Z,30.83
2018-02-23T00:04:07.749Z,28.08
2018-02-23T00:05:11.749Z,30.02
2018-02-23T00:06:15.771Z,29.40
2018-02-23T00:07:19.009Z,31.35
2018-02-23T00:08:22.245Z,31.02
2018-02-23T00:09:25.475Z,30.17
2018-02-23T00:10:28.709Z,30.77
2018-02-23T00:11:31.938Z,32.28
2018-02-23T00:12:35.173Z,32.15
2018-02-23T00:13:38.434Z,30.50
2018-02-23T00:14:42.426Z,28.75
2018-02-23T00:15:46.446Z,26.90
2018-02-23T00:16:49.686Z,28.10
2018-02-23T00:17:53.009Z,28.92
2018-02-23T00:18:56.234Z,30.02
2018-02-23T00:19:59.501Z,29.90
2018-02-23T00:21:03.515Z,29.70
2018-02-23T00:22:07.509Z,30.95
2018-02-23T00:23:11.532Z,28.10
2018-02-23T00:24:14.765Z,30.33
2018-02-23T00:25:18.907Z,30.20
2018-02-23T00:26:22.128Z,32.03
2018-02-23T00:27:25.430Z,31.55
2018-02-23T00:28:28.665Z,31.20
2018-02-23T00:29:31.885Z,32.25
2018-02-23T00:30:35.115Z,30.95
2018-02-23T00:31:39.109Z,30.02
2018-02-23T00:32:43.221Z,30.37
2018-02-23T00:33:46.448Z,33.53
2018-02-23T00:34:49.672Z,29.83
2018-02-23T00:35:53.680Z,29.17
2018-02-23T00:36:57.671Z,31.42
2018-02-23T00:38:01.686Z,31.70
2018-02-23T00:39:05.664Z,29.58
2018-02-23T00:40:08.919Z,27.92
2018-02-23T00:41:12.137Z,30.40
2018-02-23T00:42:16.129Z,31.05
2018-02-23T00:43:19.376Z,29.02
2018-02-23T00:44:22.616Z,30.58
2018-02-23T00:45:26.619Z,30.23
2018-02-23T00:46:30.623Z,28.92
2018-02-23T00:47:34.614Z,30.62
2018-02-23T00:48:38.619Z,29.80
2018-02-23T00:49:42.614Z,33.58
2018-02-23T00:50:46.626Z,30.83
2018-02-23T00:51:49.844Z,32.25
2018-02-23T00:52:53.108Z,33.13
2018-02-23T00:53:57.128Z,30.50
2018-02-23T00:55:00.368Z,31.42
2018-02-23T00:56:04.388Z,33.40
2018-02-23T00:57:07.632Z,33.50
2018-02-23T00:58:11.626Z,31.95
2018-02-23T00:59:16.359Z,30.25
2018-02-23T01:00:20.359Z,30.77
2018-02-23T01:01:24.150Z,29.77
2018-02-23T01:02:27.404Z,29.80
2018-02-23T01:03:30.623Z,33.67
2018-02-23T01:04:33.903Z,31.02
2018-02-23T01:05:37.124Z,29.55
2018-02-23T01:06:40.354Z,31.80
2018-02-23T01:07:43.738Z,31.50
2018-02-23T01:08:46.944Z,32.63
2018-02-23T01:09:51.014Z,32.53
2018-02-23T01:10:54.243Z,31.23
2018-02-23T01:11:57.509Z,32.85
2018-02-23T01:13:01.499Z,30.80
2018-02-23T01:14:04.746Z,32.80
2018-02-23T01:15:07.969Z,30.65
2018-02-23T01:16:11.285Z,30.62
2018-02-23T01:17:14.683Z,35.00
2018-02-23T01:18:17.906Z,31.35
2018-02-23T01:19:21.124Z,30.52
2018-02-23T01:20:25.117Z,29.75
2018-02-23T01:21:29.109Z,32.45
2018-02-23T01:22:32.358Z,31.62
2018-02-23T01:23:35.611Z,31.60
2018-02-23T01:24:38.842Z,30.83
2018-02-23T01:25:42.075Z,31.85
2018-02-23T01:26:46.061Z,32.15
2018-02-23T01:27:50.054Z,31.08
2018-02-23T01:28:54.037Z,31.40
2018-02-23T01:29:58.044Z,30.98
2018-02-23T01:31:01.269Z,32.33
2018-02-23T01:32:04.496Z,31.52
2018-02-23T01:33:07.733Z,29.83
2018-02-23T01:34:10.958Z,34.03
2018-02-23T01:35:14.237Z,34.72
2018-02-23T01:36:17.477Z,33.78
2018-02-23T01:37:20.701Z,31.02
2018-02-23T01:38:24.018Z,31.58
2018-02-23T01:39:28.087Z,31.67
2018-02-23T01:40:31.272Z,32.30
2018-02-23T01:41:35.188Z,31.98
2018-02-23T01:42:38.838Z,32.00
2018-02-23T01:43:42.097Z,34.15
2018-02-23T01:44:46.081Z,32.35
2018-02-23T01:45:50.100Z,32.17
2018-02-23T01:46:53.330Z,34.45
2018-02-23T01:47:56.571Z,32.42
2018-02-23T01:48:59.802Z,33.13
2018-02-23T01:50:03.086Z,34.20
2018-02-23T01:51:06.265Z,33.72
2018-02-23T01:52:09.501Z,33.38
2018-02-23T01:53:12.734Z,33.63
2018-02-23T01:54:15.998Z,30.90
2018-02-23T01:55:19.221Z,32.15
2018-02-23T01:56:23.301Z,33.65
2018-02-23T01:57:26.518Z,33.88
2018-02-23T01:58:30.510Z,30.50
2018-02-23T01:59:34.531Z,33.22
2018-02-23T02:00:37.753Z,33.03
2018-02-23T02:01:40.996Z,34.20
2018-02-23T02:02:44.218Z,32.60
2018-02-23T02:03:47.462Z,31.98
2018-02-23T02:04:50.749Z,32.33
2018-02-23T02:05:54.065Z,33.13
2018-02-23T02:06:57.282Z,33.20
2018-02-23T02:08:00.507Z,34.03
2018-02-23T02:09:03.795Z,33.85
2018-02-23T02:10:07.020Z,34.30
2018-02-23T02:11:10.341Z,36.65
2018-02-23T02:12:13.561Z,33.80
2018-02-23T02:13:16.786Z,34.28
2018-02-23T02:14:20.786Z,33.13
2018-02-23T02:15:24.784Z,34.65
2018-02-23T02:16:28.009Z,34.28
2018-02-23T02:17:31.264Z,31.27
2018-02-23T02:18:35.249Z,33.20
2018-02-23T02:19:38.470Z,33.90
2018-02-23T02:20:41.698Z,32.00
2018-02-23T02:21:44.916Z,35.20
2018-02-23T02:22:48.150Z,34.90
2018-02-23T02:23:51.375Z,32.90
2018-02-23T02:24:55.360Z,35.92
2018-02-23T02:25:58.589Z,33.58
2018-02-23T02:27:01.821Z,36.45
2018-02-23T02:28:05.087Z,33.10
2018-02-23T02:29:08.312Z,35.53
2018-02-23T02:30:11.557Z,33.42
2018-02-23T02:31:14.783Z,33.58
2018-02-23T02:32:18.009Z,34.15
2018-02-23T02:33:21.303Z,34.45
2018-02-23T02:34:24.512Z,34.55
2018-02-23T02:35:27.726Z,34.58
2018-02-23T02:36:31.052Z,32.60
2018-02-23T02:37:34.274Z,35.38
2018-02-23T02:38:38.276Z,37.30
2018-02-23T02:39:42.288Z,31.12
2018-02-23T02:40:45.525Z,33.15
2018-02-23T02:41:48.773Z,33.88
2018-02-23T02:42:52.013Z,34.38
2018-02-23T02:43:55.229Z,32.95
2018-02-23T02:44:58.460Z,32.90
2018-02-23T02:46:01.697Z,35.83
2018-02-23T02:47:04.930Z,34.33
2018-02-23T02:48:08.186Z,33.30
2018-02-23T02:49:11.414Z,33.25
2018-02-23T02:50:15.423Z,34.30
2018-02-23T02:51:19.426Z,33.58
2018-02-23T02:52:22.645Z,33.58
2018-02-23T02:53:25.891Z,32.90
2018-02-23T02:54:29.882Z,33.63
2018-02-23T02:55:33.895Z,33.85
2018-02-23T02:56:37.900Z,34.05
2018-02-23T02:57:41.876Z,34.88
2018-02-23T02:58:46.168Z,35.10
2018-02-23T02:59:49.385Z,32.38
2018-02-23T03:00:53.384Z,34.22
2018-02-23T03:01:56.614Z,32.58
2018-02-23T03:02:59.845Z,33.03
2018-02-23T03:04:03.843Z,33.95
2018-02-23T03:05:07.862Z,37.00
2018-02-23T03:06:11.109Z,34.92
2018-02-23T03:07:14.379Z,34.65
2018-02-23T03:08:17.598Z,33.22
2018-02-23T03:09:21.595Z,36.03
2018-02-23T03:10:25.670Z,36.08
2018-02-23T03:11:28.943Z,32.88
2018-02-23T03:12:32.145Z,32.33
2018-02-23T03:13:35.467Z,33.03
2018-02-23T03:14:38.722Z,32.42
2018-02-23T03:15:41.963Z,34.30
2018-02-23T03:16:45.245Z,35.58
2018-02-23T03:17:48.470Z,32.58
2018-02-23T03:18:51.744Z,33.17
2018-02-23T03:19:54.979Z,31.20
2018-02-23T03:20:58.982Z,33.45
2018-02-23T03:22:02.978Z,31.25
2018-02-23T03:23:06.972Z,32.60
2018-02-23T03:24:10.209Z,31.60
2018-02-23T03:25:13.439Z,35.85
2018-02-23T03:26:16.708Z,35.55
2018-02-23T03:27:19.934Z,34.25
2018-02-23T03:28:23.173Z,33.03
2018-02-23T03:29:26.422Z,32.60
2018-02-23T03:30:29.675Z,31.50
2018-02-23T03:31:32.928Z,34.00
2018-02-23T03:32:36.176Z,31.85
2018-02-23T03:33:39.407Z,32.10
2018-02-23T03:34:43.401Z,31.02
2018-02-23T03:35:46.719Z,32.53
2018-02-23T03:36:49.956Z,30.27
2018-02-23T03:37:53.198Z,32.78
2018-02-23T03:38:56.440Z,32.38
2018-02-23T03:39:59.701Z,33.47
2018-02-23T03:41:02.915Z,30.98
2018-02-23T03:42:06.913Z,31.65
2018-02-23T03:43:10.954Z,33.05
2018-02-23T03:44:14.189Z,32.05
2018-02-23T03:45:18.186Z,30.75
2018-02-23T03:46:21.449Z,33.78
2018-02-23T03:47:24.677Z,31.45
2018-02-23T03:48:28.671Z,32.25
2018-02-23T03:49:32.658Z,32.28
2018-02-23T03:50:36.653Z,30.45
2018-02-23T03:51:39.887Z,32.03
2018-02-23T03:52:43.121Z,30.15
2018-02-23T03:53:46.488Z,31.60
2018-02-23T03:54:49.705Z,32.63
2018-02-23T03:55:52.943Z,33.13
2018-02-23T03:56:56.200Z,34.95
2018-02-23T03:57:59.524Z,32.25
2018-02-23T03:59:02.739Z,31.80
2018-02-23T04:00:06.740Z,31.62
2018-02-23T04:01:10.743Z,31.95
2018-02-23T04:02:14.770Z,33.03
2018-02-23T04:03:18.102Z,30.73
2018-02-23T04:04:21.385Z,32.00
2018-02-23T04:05:26.121Z,30.15
2018-02-23T04:06:30.152Z,31.25
2018-02-23T04:07:33.397Z,33.33
2018-02-23T04:08:36.633Z,34.10
2018-02-23T04:09:39.897Z,32.33
2018-02-23T04:10:43.112Z,31.90
2018-02-23T04:11:46.346Z,32.50
2018-02-23T04:12:50.367Z,32.03
2018-02-23T04:13:53.622Z,32.25
2018-02-23T04:14:56.858Z,32.85
2018-02-23T04:16:00.116Z,35.88
2018-02-23T04:17:03.356Z,31.33
2018-02-23T04:18:06.600Z,30.35
2018-02-23T04:19:09.826Z,34.15
2018-02-23T04:20:13.862Z,32.08
2018-02-23T04:21:17.106Z,34.33
2018-02-23T04:22:20.361Z,31.73
2018-02-23T04:23:23.662Z,31.75
2018-02-23T04:24:26.857Z,30.17
2018-02-23T04:25:30.097Z,32.30
2018-02-23T04:26:33.340Z,33.00
2018-02-23T04:27:37.329Z,31.75
2018-02-23T04:28:40.563Z,31.95
2018-02-23T04:29:43.788Z,30.67
2018-02-23T04:30:47.007Z,32.88
2018-02-23T04:31:50.248Z,29.83
2018-02-23T04:32:53.475Z,31.12
2018-02-23T04:33:56.910Z,29.25
2018-02-23T04:35:00.155Z,31.65
2018-02-23T04:36:03.453Z,29.73
2018-02-23T04:37:06.687Z,30.25
2018-02-23T04:38:10.682Z,29.60
2018-02-23T04:39:14.694Z,29.87
2018-02-23T04:40:18.711Z,33.85
2018-02-23T04:41:21.940Z,28.35
2018-02-23T04:42:25.169Z,34.25
2018-02-23T04:43:29.173Z,34.72
2018-02-23T04:44:33.317Z,31.85
2018-02-23T04:45:36.565Z,35.10
2018-02-23T04:46:39.915Z,34.67
2018-02-23T04:47:43.140Z,35.80
2018-02-23T04:48:46.369Z,34.35
2018-02-23T04:49:49.592Z,36.78
2018-02-23T04:50:53.590Z,34.05
2018-02-23T04:51:57.621Z,35.35
2018-02-23T04:53:00.928Z,34.75
2018-02-23T04:54:04.115Z,35.58
2018-02-23T04:55:07.354Z,34.50
2018-02-23T04:56:10.613Z,34.95
2018-02-23T04:57:14.600Z,33.45
2018-02-23T04:58:19.460Z,38.15
2018-02-23T04:59:22.690Z,35.03
2018-02-23T05:00:26.721Z,35.53
2018-02-23T05:01:30.713Z,34.17
2018-02-23T05:02:34.699Z,34.97
2018-02-23T05:03:37.943Z,34.78
2018-02-23T05:04:41.194Z,37.05
2018-02-23T05:05:45.213Z,36.65
2018-02-23T05:06:48.444Z,36.38
2018-02-23T05:07:51.686Z,36.92
2018-02-23T05:08:54.929Z,35.47
2018-02-23T05:09:58.149Z,33.45
2018-02-23T05:11:01.390Z,34.10
2018-02-23T05:12:04.637Z,34.38
2018-02-23T05:13:07.873Z,32.83
2018-02-23T05:14:11.876Z,33.35
2018-02-23T05:15:15.882Z,34.03
2018-02-23T05:16:19.121Z,32.35
2018-02-23T05:17:22.367Z,30.40
2018-02-23T05:18:25.599Z,33.97
2018-02-23T05:19:28.814Z,33.38
2018-02-23T05:20:32.094Z,35.70
2018-02-23T05:21:36.124Z,32.08
2018-02-23T05:22:40.089Z,34.60
2018-02-23T05:23:44.078Z,33.03
2018-02-23T05:24:48.077Z,34.00
2018-02-23T05:25:51.322Z,34.92
2018-02-23T05:26:54.546Z,33.38
2018-02-23T05:27:58.545Z,33.15
2018-02-23T05:29:01.804Z,33.13
2018-02-23T05:30:05.050Z,32.90
2018-02-23T05:31:08.276Z,34.60
2018-02-23T05:32:11.536Z,34.35
2018-02-23T05:33:14.793Z,34.33
2018-02-23T05:34:18.023Z,33.30
2018-02-23T05:35:21.252Z,35.50
2018-02-23T05:36:24.513Z,36.05
2018-02-23T05:37:28.521Z,35.85
2018-02-23T05:38:32.509Z,34.90
2018-02-23T05:39:36.510Z,35.25
2018-02-23T05:40:39.742Z,34.65
2018-02-23T05:41:43.050Z,34.95
2018-02-23T05:42:46.262Z,34.25
2018-02-23T05:43:50.283Z,35.92
2018-02-23T05:44:53.540Z,39.25
2018-02-23T05:45:56.767Z,34.33
2018-02-23T05:47:00.015Z,34.88
2018-02-23T05:48:04.020Z,34.72
2018-02-23T05:49:08.055Z,37.20
2018-02-23T05:50:11.325Z,34.60
2018-02-23T05:51:15.301Z,36.85
2018-02-23T05:52:19.722Z,33.10
2018-02-23T05:53:23.704Z,33.65
2018-02-23T05:54:26.963Z,35.72
2018-02-23T05:55:30.209Z,37.10
2018-02-23T05:56:33.448Z,38.13
2018-02-23T05:57:36.693Z,33.95
2018-02-23T05:58:39.913Z,35.17
2018-02-23T05:59:43.162Z,37.45
2018-02-23T06:00:46.386Z,34.40
2018-02-23T06:01:50.411Z,36.17
2018-02-23T06:02:53.652Z,37.00
2018-02-23T06:03:56.938Z,35.30
2018-02-23T06:05:00.217Z,35.08
2018-02-23T06:06:03.481Z,35.00
2018-02-23T06:07:06.768Z,36.85
2018-02-23T06:08:10.030Z,38.58
2018-02-23T06:09:13.270Z,37.20
2018-02-23T06:10:16.502Z,34.72
2018-02-23T06:11:19.746Z,37.17
2018-02-23T06:12:22.977Z,35.30
2018-02-23T06:13:26.215Z,38.13
2018-02-23T06:14:30.208Z,35.30
2018-02-23T06:17:16.851Z,33.83
2018-02-23T06:18:25.724Z,37.92
2018-02-23T06:19:34.606Z,37.13
2018-02-23T06:20:37.827Z,35.58
2018-02-23T06:21:42.551Z,35.72
2018-02-23T06:22:46.615Z,37.10
2018-02-23T06:23:49.830Z,36.55
2018-02-23T06:24:53.873Z,36.05
2018-02-23T06:25:57.109Z,35.30
2018-02-23T06:27:00.429Z,34.30
2018-02-23T06:28:03.682Z,34.50
2018-02-23T06:29:07.686Z,34.78
2018-02-23T06:30:11.679Z,34.45
2018-02-23T06:31:14.934Z,37.47
2018-02-23T06:32:18.222Z,36.67
2018-02-23T06:33:21.509Z,35.67
2018-02-23T06:34:24.762Z,36.53
2018-02-23T06:35:28.198Z,35.63
2018-02-23T06:36:31.526Z,34.30
2018-02-23T06:37:34.748Z,32.75
2018-02-23T06:38:37.977Z,36.42
2018-02-23T06:39:41.250Z,37.30
2018-02-23T06:40:45.404Z,34.58
2018-02-23T06:41:48.625Z,35.42
2018-02-23T06:42:52.695Z,35.38
2018-02-23T06:43:55.919Z,34.85
2018-02-23T06:44:59.935Z,37.42
2018-02-23T06:46:03.973Z,35.15
2018-02-23T06:47:12.251Z,35.10
2018-02-23T06:48:15.484Z,36.25
2018-02-23T06:49:18.736Z,34.97
2018-02-23T06:50:22.008Z,36.05
2018-02-23T06:51:25.241Z,35.65
2018-02-23T06:52:29.099Z,36.33
2018-02-23T06:53:32.326Z,35.05
2018-02-23T06:54:36.336Z,36.28
2018-02-23T06:55:40.347Z,37.45
2018-02-23T06:56:43.589Z,38.10
2018-02-23T06:57:46.930Z,37.33
2018-02-23T06:58:50.163Z,34.63
2018-02-23T06:59:53.501Z,34.92
2018-02-23T07:00:56.746Z,35.88
2018-02-23T07:02:00.754Z,38.10
2018-02-23T07:03:04.836Z,35.55
2018-02-23T07:04:08.080Z,35.45
2018-02-23T07:05:11.304Z,35.70
2018-02-23T07:06:14.542Z,35.67
2018-02-23T07:07:17.821Z,36.85
2018-02-23T07:08:21.074Z,34.22
2018-02-23T07:09:25.078Z,36.47
2018-02-23T07:10:29.078Z,35.50
2018-02-23T07:11:33.074Z,36.17
2018-02-23T07:12:37.083Z,36.05
2018-02-23T07:13:41.090Z,34.30
2018-02-23T07:14:44.320Z,34.80
2018-02-23T07:15:47.614Z,35.40
2018-02-23T07:16:50.875Z,36.38
2018-02-23T07:17:54.132Z,35.25
2018-02-23T07:18:58.114Z,36.13
2018-02-23T07:20:02.178Z,35.13
2018-02-23T07:21:05.377Z,34.67
2018-02-23T07:22:08.638Z,36.13
2018-02-23T07:23:11.904Z,35.65
2018-02-23T07:24:15.121Z,35.55
2018-02-23T07:25:18.381Z,34.85
2018-02-23T07:26:21.612Z,35.17
2018-02-23T07:27:25.601Z,34.95
2018-02-23T07:28:29.593Z,35.80
2018-02-23T07:29:32.821Z,34.83
2018-02-23T07:30:36.060Z,36.70
2018-02-23T07:31:39.296Z,35.97
2018-02-23T07:32:42.525Z,34.10
2018-02-23T07:33:45.760Z,32.30
2018-02-23T07:34:48.979Z,35.38
2018-02-23T07:35:53.710Z,35.95
2018-02-23T07:36:56.945Z,36.03
2018-02-23T07:38:00.476Z,36.55
2018-02-23T07:39:03.760Z,36.05
2018-02-23T07:40:07.021Z,34.95
2018-02-23T07:41:10.254Z,35.22
2018-02-23T07:42:14.267Z,35.45
2018-02-23T07:43:18.285Z,34.40
2018-02-23T07:44:21.512Z,34.50
2018-02-23T07:45:24.742Z,36.38
2018-02-23T07:46:28.886Z,35.13
2018-02-23T07:47:32.086Z,33.97
2018-02-23T07:48:35.322Z,36.97
2018-02-23T07:49:38.549Z,37.63
2018-02-23T07:50:41.778Z,34.15
2018-02-23T07:51:45.018Z,33.92
2018-02-23T07:52:48.343Z,33.85
2018-02-23T07:53:51.586Z,36.70
2018-02-23T07:54:54.836Z,33.97
2018-02-23T07:55:58.049Z,35.40
2018-02-23T07:57:01.283Z,36.28
2018-02-23T07:58:04.508Z,34.60
2018-02-23T07:59:07.758Z,36.15
2018-02-23T08:00:11.229Z,33.75
2018-02-23T08:01:14.468Z,35.05
2018-02-23T08:02:17.734Z,31.75
2018-02-23T08:03:21.014Z,37.38
2018-02-23T08:04:24.230Z,35.60
2018-02-23T08:05:28.302Z,33.30
2018-02-23T08:06:31.560Z,32.65
2018-02-23T08:07:34.794Z,33.70
2018-02-23T08:08:38.032Z,35.65
2018-02-23T08:09:41.260Z,33.33
2018-02-23T08:10:44.490Z,31.67
2018-02-23T08:11:47.710Z,32.92
2018-02-23T08:12:50.960Z,33.88
2018-02-23T08:13:54.190Z,34.25
2018-02-23T08:14:57.429Z,35.97
2018-02-23T08:16:00.654Z,33.88
2018-02-23T08:17:03.903Z,32.50
2018-02-23T08:18:07.145Z,33.25
2018-02-23T08:19:11.157Z,33.78
2018-02-23T08:20:14.392Z,35.22
2018-02-23T08:21:18.512Z,33.75
2018-02-23T08:22:22.504Z,35.38
2018-02-23T08:23:25.742Z,34.20
2018-02-23T08:24:28.970Z,34.45
2018-02-23T08:25:32.205Z,34.13
2018-02-23T08:26:35.426Z,35.33
2018-02-23T08:27:38.761Z,35.10
2018-02-23T08:28:42.006Z,35.92
2018-02-23T08:29:45.273Z,34.60
2018-02-23T08:30:48.488Z,32.40
2018-02-23T08:31:52.807Z,34.38
2018-02-23T08:32:56.772Z,32.33
2018-02-23T08:34:00.068Z,35.35
2018-02-23T08:35:03.281Z,34.22
2018-02-23T08:36:06.512Z,34.95
2018-02-23T08:37:09.746Z,32.85
2018-02-23T08:38:13.022Z,33.67
2018-02-23T08:39:16.239Z,32.38
2018-02-23T08:40:19.472Z,32.80
2018-02-23T08:41:23.506Z,34.70
2018-02-23T08:42:26.728Z,33.53
2018-02-23T08:43:30.747Z,31.17
2018-02-23T08:44:34.025Z,31.95
2018-02-23T08:45:37.266Z,33.35
2018-02-23T08:46:40.509Z,34.10
2018-02-23T08:47:43.829Z,31.52
2018-02-23T08:48:47.044Z,31.55
2018-02-23T08:49:50.298Z,34.40
2018-02-23T08:50:53.527Z,34.63
2018-02-23T08:51:56.768Z,33.10
2018-02-23T08:53:00.041Z,31.80
2018-02-23T08:54:03.268Z,32.90
2018-02-23T08:55:07.321Z,33.53
2018-02-23T08:56:10.550Z,30.88
2018-02-23T08:57:13.776Z,31.50
2018-02-23T08:58:17.022Z,31.70
2018-02-23T08:59:20.261Z,31.65
2018-02-23T09:00:27.428Z,33.33
2018-02-23T09:01:30.719Z,32.13
2018-02-23T09:02:33.981Z,31.05
2018-02-23T09:03:37.229Z,31.62
2018-02-23T09:04:40.450Z,33.33
2018-02-23T09:05:43.702Z,32.38
2018-02-23T09:06:46.957Z,32.38
2018-02-23T09:07:50.207Z,30.95
2018-02-23T09:08:53.500Z,33.88
2018-02-23T09:09:57.484Z,31.85
2018-02-23T09:11:00.711Z,30.85
2018-02-23T09:12:03.948Z,31.95
2018-02-23T09:13:07.176Z,33.67
2018-02-23T09:14:10.410Z,32.47
2018-02-23T09:15:13.631Z,32.35
2018-02-23T09:16:16.864Z,31.27
2018-02-23T09:17:20.864Z,32.70
2018-02-23T09:18:24.876Z,32.80
2018-02-23T09:19:28.218Z,33.25
2018-02-23T09:20:31.430Z,32.03
2018-02-23T09:21:35.434Z,33.00
2018-02-23T09:22:39.433Z,32.47
2018-02-23T09:23:43.468Z,31.45
2018-02-23T09:24:46.713Z,29.83
2018-02-23T09:25:49.922Z,30.00
2018-02-23T09:26:53.206Z,28.98
2018-02-23T09:27:56.437Z,31.52
2018-02-23T09:28:59.684Z,34.22
2018-02-23T09:30:02.959Z,32.05
2018-02-23T09:31:06.978Z,29.75
2018-02-23T09:32:22.133Z,33.78
2018-02-23T09:33:47.945Z,31.12
2018-02-23T09:34:51.185Z,32.42
2018-02-23T09:35:55.191Z,33.50
2018-02-23T09:36:59.186Z,32.15
2018-02-23T09:38:03.183Z,31.05
2018-02-23T09:39:06.407Z,31.67
2018-02-23T09:40:09.655Z,32.90
2018-02-23T09:41:13.667Z,31.98
2018-02-23T09:42:17.658Z,31.90
2018-02-23T09:43:21.679Z,31.52
2018-02-23T09:44:25.010Z,32.78
2018-02-23T09:45:28.226Z,32.42
2018-02-23T09:46:32.228Z,32.25
2018-02-23T09:47:36.237Z,30.95
2018-02-23T09:48:40.243Z,32.55
2018-02-23T09:49:44.236Z,32.83
2018-02-23T09:50:48.241Z,31.02
2018-02-23T09:51:51.480Z,31.85
2018-02-23T09:52:54.712Z,32.58
2018-02-23T09:53:57.950Z,31.55
2018-02-23T09:55:01.193Z,31.30
2018-02-23T09:56:04.445Z,33.88
2018-02-23T09:57:08.468Z,30.92
2018-02-23T09:58:11.710Z,32.38
2018-02-23T09:59:14.963Z,33.35
2018-02-23T10:00:18.200Z,30.80
2018-02-23T10:01:22.239Z,32.70
2018-02-23T10:02:26.191Z,31.65
2018-02-23T10:03:29.459Z,34.58
2018-02-23T10:04:32.751Z,33.22
2018-02-23T10:05:36.011Z,33.00
2018-02-23T10:06:39.229Z,31.62
2018-02-23T10:07:43.234Z,32.83
2018-02-23T10:08:47.225Z,32.28
2018-02-23T10:09:51.233Z,32.33
2018-02-23T10:10:55.305Z,32.28
2018-02-23T10:11:58.473Z,30.77
2018-02-23T10:13:01.707Z,32.42
2018-02-23T10:14:05.831Z,32.30
2018-02-23T10:15:09.078Z,32.03
2018-02-23T10:16:13.085Z,32.00
2018-02-23T10:17:17.077Z,31.42
2018-02-23T10:18:20.322Z,33.65
2018-02-23T10:19:23.556Z,33.05
2018-02-23T10:20:27.585Z,32.00
2018-02-23T10:21:30.810Z,32.90
2018-02-23T10:22:34.042Z,33.67
2018-02-23T10:23:37.333Z,33.92
2018-02-23T10:24:40.513Z,31.17
2018-02-23T10:25:43.793Z,33.58
2018-02-23T10:26:47.042Z,33.13
2018-02-23T10:27:51.035Z,32.22
2018-02-23T10:28:54.276Z,31.73
2018-02-23T10:29:57.506Z,29.65
2018-02-23T10:31:00.754Z,30.40
2018-02-23T10:32:03.983Z,31.52
2018-02-23T10:33:08.017Z,32.70
2018-02-23T10:34:11.288Z,28.50
2018-02-23T10:35:15.066Z,32.13
2018-02-23T10:36:19.857Z,31.50
2018-02-23T10:37:23.101Z,30.65
2018-02-23T10:38:26.325Z,30.92
2018-02-23T10:39:29.585Z,28.80
2018-02-23T10:40:32.833Z,28.90
2018-02-23T10:41:36.060Z,30.88
2018-02-23T10:42:39.305Z,32.17
2018-02-23T10:43:42.541Z,30.52
2018-02-23T10:44:45.765Z,32.20
2018-02-23T10:45:48.993Z,31.60
2018-02-23T10:46:52.272Z,33.67
2018-02-23T10:47:55.645Z,29.80
2018-02-23T10:48:58.877Z,31.58
2018-02-23T10:50:02.866Z,31.55
2018-02-23T10:51:06.097Z,32.22
2018-02-23T10:52:09.357Z,31.42
2018-02-23T10:53:13.388Z,30.23
2018-02-23T10:54:16.656Z,32.13
2018-02-23T10:55:19.861Z,31.17
2018-02-23T10:56:23.127Z,28.98
2018-02-23T10:57:26.370Z,30.25
2018-02-23T10:58:30.378Z,31.83
2018-02-23T10:59:34.382Z,30.33
2018-02-23T11:00:38.389Z,31.02
2018-02-23T11:01:42.373Z,28.40
2018-02-23T11:02:45.638Z,30.88
2018-02-23T11:03:48.873Z,30.27
2018-02-23T11:04:52.138Z,28.35
2018-02-23T11:05:56.130Z,32.03
2018-02-23T11:07:00.148Z,30.20
2018-02-23T11:08:04.137Z,29.05
2018-02-23T11:09:08.153Z,31.15
2018-02-23T11:10:11.451Z,32.13
2018-02-23T11:11:14.702Z,31.12
2018-02-23T11:12:18.747Z,30.50
2018-02-23T11:13:21.968Z,31.42
2018-02-23T11:14:25.222Z,32.20
2018-02-23T11:15:28.469Z,33.65
2018-02-23T11:16:31.727Z,29.77
2018-02-23T11:17:34.940Z,30.83
2018-02-23T11:18:38.187Z,32.95
2018-02-23T11:19:41.403Z,30.73
2018-02-23T11:20:44.725Z,31.27
2018-02-23T11:21:47.958Z,32.45
2018-02-23T11:22:51.214Z,30.73
2018-02-23T11:23:54.474Z,30.25
2018-02-23T11:24:57.735Z,31.40
2018-02-23T11:26:01.036Z,31.70
2018-02-23T11:27:04.271Z,32.80
2018-02-23T11:28:08.423Z,32.25
2018-02-23T11:29:11.857Z,30.65
2018-02-23T11:30:16.433Z,31.58
2018-02-23T11:31:20.441Z,29.73
2018-02-23T11:32:23.668Z,31.62
2018-02-23T11:33:27.876Z,32.45
2018-02-23T11:34:31.108Z,31.42
2018-02-23T11:35:34.340Z,31.45
2018-02-23T11:36:39.173Z,31.30
2018-02-23T11:37:42.394Z,31.15
2018-02-23T11:38:45.640Z,29.73
2018-02-23T11:39:48.850Z,29.67
2018-02-23T11:40:52.089Z,30.00
2018-02-23T11:41:55.361Z,31.67
2018-02-23T11:42:58.610Z,31.30
2018-02-23T11:44:01.885Z,33.10
2018-02-23T11:45:05.110Z,31.15
2018-02-23T11:46:09.132Z,29.98
2018-02-23T11:47:12.408Z,30.35
2018-02-23T11:48:15.699Z,30.02
2018-02-23T11:49:18.935Z,32.20
2018-02-23T11:50:22.195Z,30.33
2018-02-23T11:51:25.484Z,30.80
2018-02-23T11:52:28.768Z,30.35
2018-02-23T11:53:31.967Z,31.98
2018-02-23T11:54:35.218Z,29.52
2018-02-23T11:55:38.529Z,33.15
2018-02-23T11:56:41.744Z,31.90
2018-02-23T11:57:44.982Z,34.22
2018-02-23T11:58:48.252Z,33.70
2018-02-23T11:59:51.491Z,30.70
2018-02-23T12:00:55.492Z,30.80
2018-02-23T12:01:59.484Z,33.03
2018-02-23T12:03:03.492Z,32.70
2018-02-23T12:04:08.081Z,32.38
2018-02-23T12:05:11.309Z,32.20
2018-02-23T12:06:14.620Z,33.58
2018-02-23T12:07:17.952Z,31.60
2018-02-23T12:08:21.972Z,29.05
2018-02-23T12:09:25.213Z,31.92
2018-02-23T12:10:28.483Z,31.55
2018-02-23T12:11:31.679Z,30.20
2018-02-23T12:12:34.923Z,32.50
2018-02-23T12:13:38.173Z,30.92
2018-02-23T12:14:42.168Z,31.98
2018-02-23T12:15:46.171Z,32.63
2018-02-23T12:16:50.189Z,31.85
2018-02-23T12:17:53.432Z,29.65
2018-02-23T12:18:56.636Z,31.90
2018-02-23T12:20:00.342Z,32.05
2018-02-23T12:21:03.586Z,30.10
2018-02-23T12:22:07.983Z,32.88
2018-02-23T12:23:11.234Z,34.08
2018-02-23T12:24:14.465Z,33.88
2018-02-23T12:25:17.734Z,31.70
2018-02-23T12:26:20.959Z,31.00
2018-02-23T12:27:24.948Z,30.23
2018-02-23T12:28:28.965Z,30.73
2018-02-23T12:29:32.206Z,31.42
2018-02-23T12:30:35.494Z,29.48
2018-02-23T12:31:38.745Z,33.15
2018-02-23T12:32:42.001Z,29.55
2018-02-23T12:33:45.339Z,30.15
2018-02-23T12:34:48.549Z,30.00
2018-02-23T12:35:51.798Z,31.25
2018-02-23T12:36:55.026Z,33.47
2018-02-23T12:37:58.258Z,31.92
2018-02-23T12:39:02.262Z,30.00
2018-02-23T12:40:06.245Z,31.75
2018-02-23T12:41:10.255Z,28.85
2018-02-23T12:42:14.243Z,29.83
2018-02-23T12:43:18.290Z,31.15
2018-02-23T12:44:21.536Z,31.12
2018-02-23T12:45:25.552Z,32.58
2018-02-23T12:46:28.779Z,32.28
2018-02-23T12:47:32.010Z,31.73
2018-02-23T12:48:37.170Z,29.45
2018-02-23T12:49:40.437Z,32.08
2018-02-23T12:50:43.673Z,28.87
2018-02-23T12:51:46.904Z,31.85
2018-02-23T12:52:50.134Z,32.33
2018-02-23T12:53:53.377Z,32.90
2018-02-23T12:54:56.606Z,29.17
2018-02-23T12:55:59.840Z,29.87
2018-02-23T12:57:03.076Z,31.40
2018-02-23T12:58:06.317Z,30.98
2018-02-23T12:59:10.461Z,29.45
2018-02-23T13:00:13.740Z,31.73
2018-02-23T13:01:16.978Z,28.30
2018-02-23T13:02:20.996Z,30.08
2018-02-23T13:03:24.989Z,30.60
2018-02-23T13:04:28.994Z,30.95
2018-02-23T13:05:33.018Z,30.83
2018-02-23T13:06:36.275Z,31.20
2018-02-23T13:07:40.265Z,29.10
2018-02-23T13:08:44.330Z,32.13
2018-02-23T13:09:47.584Z,29.75
2018-02-23T13:12:00.397Z,31.27
2018-02-23T13:13:03.675Z,29.00
2018-02-23T13:14:07.650Z,30.52
2018-02-23T13:15:16.502Z,30.15
2018-02-23T13:16:29.455Z,30.30
2018-02-23T13:17:32.687Z,28.95
2018-02-23T13:18:36.033Z,29.83
2018-02-23T13:19:39.302Z,28.58
2018-02-23T13:20:42.531Z,29.05
2018-02-23T13:21:45.757Z,27.30
2018-02-23T13:22:48.998Z,30.55
2018-02-23T13:23:52.221Z,31.25
2018-02-23T13:24:56.219Z,29.90
2018-02-23T13:25:59.464Z,29.77
2018-02-23T13:27:08.511Z,31.00
2018-02-23T13:28:18.134Z,27.20
2018-02-23T13:29:21.363Z,28.38
2018-02-23T13:30:24.602Z,30.10
2018-02-23T13:31:28.617Z,29.65
2018-02-23T13:32:32.599Z,28.90
2018-02-23T13:33:35.818Z,32.78
2018-02-23T13:34:39.048Z,29.95
2018-02-23T13:35:42.277Z,27.52
2018-02-23T13:36:45.499Z,30.70
2018-02-23T13:37:48.738Z,31.05
2018-02-23T13:38:51.986Z,29.75
2018-02-23T13:39:55.213Z,31.37
2018-02-23T13:41:04.120Z,32.80
2018-02-23T13:42:07.405Z,30.35